sensor_id;sensor_type;location;lat;lon;timestamp;P1;durP1;ratioP1;P2;durP2;ratioP2
57055;SDS011;42945;51.718;5.324;2023-05-10T00:01:32;54.63;;;21.45;;
57055;SDS011;42945;51.718;5.324;2023-05-10T00:03:57;55.90;;;23.83;;
57055;SDS011;42945;51.718;5.324;2023-05-10T00:06:23;62.75;;;22.88;;
57055;SDS011;42945;51.718;5.324;2023-05-10T00:08:48;66.07;;;23.83;;
57055;SDS011;42945;51.718;5.324;2023-05-10T00:11:13;66.38;;;24.13;;
57055;SDS011;42945;51.718;5.324;2023-05-10T00:13:40;62.88;;;23.40;;
57055;SDS011;42945;51.718;5.324;2023-05-10T00:16:05;63.90;;;23.70;;
57055;SDS011;42945;51.718;5.324;2023-05-10T00:18:31;61.38;;;23.65;;
57055;SDS011;42945;51.718;5.324;2023-05-10T00:20:56;57.97;;;23.60;;
57055;SDS011;42945;51.718;5.324;2023-05-10T00:23:21;60.85;;;23.70;;
57055;SDS011;42945;51.718;5.324;2023-05-10T00:25:47;59.88;;;22.92;;
57055;SDS011;42945;51.718;5.324;2023-05-10T00:28:12;63.38;;;24.00;;
57055;SDS011;42945;51.718;5.324;2023-05-10T00:30:37;61.95;;;22.83;;
57055;SDS011;42945;51.718;5.324;2023-05-10T00:33:02;58.78;;;22.65;;
57055;SDS011;42945;51.718;5.324;2023-05-10T00:35:28;61.78;;;21.65;;
57055;SDS011;42945;51.718;5.324;2023-05-10T00:37:53;60.10;;;21.83;;
57055;SDS011;42945;51.718;5.324;2023-05-10T00:40:18;57.42;;;21.92;;
57055;SDS011;42945;51.718;5.324;2023-05-10T00:42:44;59.47;;;21.60;;
57055;SDS011;42945;51.718;5.324;2023-05-10T00:45:09;63.38;;;23.52;;
57055;SDS011;42945;51.718;5.324;2023-05-10T00:47:34;57.10;;;22.17;;
57055;SDS011;42945;51.718;5.324;2023-05-10T00:50:00;65.82;;;22.25;;
57055;SDS011;42945;51.718;5.324;2023-05-10T00:52:27;59.00;;;22.67;;
57055;SDS011;42945;51.718;5.324;2023-05-10T00:54:53;62.60;;;22.75;;
57055;SDS011;42945;51.718;5.324;2023-05-10T00:57:19;65.53;;;23.05;;
57055;SDS011;42945;51.718;5.324;2023-05-10T00:59:45;74.13;;;24.70;;
57055;SDS011;42945;51.718;5.324;2023-05-10T01:02:10;71.18;;;24.70;;
57055;SDS011;42945;51.718;5.324;2023-05-10T01:04:36;70.72;;;23.58;;
57055;SDS011;42945;51.718;5.324;2023-05-10T01:07:02;76.50;;;24.02;;
57055;SDS011;42945;51.718;5.324;2023-05-10T01:09:28;65.75;;;24.02;;
57055;SDS011;42945;51.718;5.324;2023-05-10T01:11:53;63.90;;;24.77;;
57055;SDS011;42945;51.718;5.324;2023-05-10T01:14:20;74.07;;;24.65;;
57055;SDS011;42945;51.718;5.324;2023-05-10T01:16:46;69.32;;;24.27;;
57055;SDS011;42945;51.718;5.324;2023-05-10T01:19:21;72.15;;;25.55;;
57055;SDS011;42945;51.718;5.324;2023-05-10T01:28:15;72.82;;;27.60;;
57055;SDS011;42945;51.718;5.324;2023-05-10T01:34:02;78.30;;;28.25;;
57055;SDS011;42945;51.718;5.324;2023-05-10T01:36:32;72.05;;;25.65;;
57055;SDS011;42945;51.718;5.324;2023-05-10T01:46:58;66.50;;;23.63;;
57055;SDS011;42945;51.718;5.324;2023-05-10T01:49:32;70.95;;;22.88;;
57055;SDS011;42945;51.718;5.324;2023-05-10T01:52:06;74.03;;;23.38;;
57055;SDS011;42945;51.718;5.324;2023-05-10T01:54:35;75.85;;;22.90;;
57055;SDS011;42945;51.718;5.324;2023-05-10T01:57:06;74.47;;;24.13;;
57055;SDS011;42945;51.718;5.324;2023-05-10T01:59:34;72.35;;;23.58;;
57055;SDS011;42945;51.718;5.324;2023-05-10T02:02:04;69.20;;;23.95;;
57055;SDS011;42945;51.718;5.324;2023-05-10T02:04:30;74.65;;;24.20;;
57055;SDS011;42945;51.718;5.324;2023-05-10T02:06:58;77.35;;;24.23;;
57055;SDS011;42945;51.718;5.324;2023-05-10T02:09:23;74.13;;;23.27;;
57055;SDS011;42945;51.718;5.324;2023-05-10T02:11:52;68.65;;;22.95;;
57055;SDS011;42945;51.718;5.324;2023-05-10T02:14:19;67.47;;;23.92;;
57055;SDS011;42945;51.718;5.324;2023-05-10T02:16:45;67.22;;;23.75;;
57055;SDS011;42945;51.718;5.324;2023-05-10T02:19:12;73.90;;;23.45;;
57055;SDS011;42945;51.718;5.324;2023-05-10T02:21:39;73.18;;;24.45;;
57055;SDS011;42945;51.718;5.324;2023-05-10T02:24:06;70.10;;;24.10;;
57055;SDS011;42945;51.718;5.324;2023-05-10T02:26:33;75.13;;;26.17;;
57055;SDS011;42945;51.718;5.324;2023-05-10T02:29:01;73.25;;;25.55;;
57055;SDS011;42945;51.718;5.324;2023-05-10T02:31:28;66.57;;;24.45;;
57055;SDS011;42945;51.718;5.324;2023-05-10T02:33:56;78.35;;;24.80;;
57055;SDS011;42945;51.718;5.324;2023-05-10T02:36:23;74.85;;;26.23;;
57055;SDS011;42945;51.718;5.324;2023-05-10T02:38:52;85.72;;;26.77;;
57055;SDS011;42945;51.718;5.324;2023-05-10T02:41:18;77.53;;;27.55;;
57055;SDS011;42945;51.718;5.324;2023-05-10T02:43:46;84.35;;;28.90;;
57055;SDS011;42945;51.718;5.324;2023-05-10T02:46:14;78.78;;;27.23;;
57055;SDS011;42945;51.718;5.324;2023-05-10T02:48:39;79.10;;;27.25;;
57055;SDS011;42945;51.718;5.324;2023-05-10T02:51:05;80.40;;;29.42;;
57055;SDS011;42945;51.718;5.324;2023-05-10T02:53:33;85.78;;;30.58;;
57055;SDS011;42945;51.718;5.324;2023-05-10T02:56:01;84.57;;;32.38;;
57055;SDS011;42945;51.718;5.324;2023-05-10T02:58:32;92.17;;;32.97;;
57055;SDS011;42945;51.718;5.324;2023-05-10T03:00:57;90.35;;;32.97;;
57055;SDS011;42945;51.718;5.324;2023-05-10T03:03:22;93.85;;;33.05;;
57055;SDS011;42945;51.718;5.324;2023-05-10T03:05:48;95.22;;;32.92;;
57055;SDS011;42945;51.718;5.324;2023-05-10T03:08:15;95.78;;;33.58;;
57055;SDS011;42945;51.718;5.324;2023-05-10T03:10:50;93.60;;;30.85;;
57055;SDS011;42945;51.718;5.324;2023-05-10T03:13:44;92.40;;;31.75;;
57055;SDS011;42945;51.718;5.324;2023-05-10T03:16:47;88.05;;;31.77;;
57055;SDS011;42945;51.718;5.324;2023-05-10T03:19:32;85.75;;;31.08;;
57055;SDS011;42945;51.718;5.324;2023-05-10T03:22:08;82.82;;;29.95;;
57055;SDS011;42945;51.718;5.324;2023-05-10T03:24:35;81.13;;;30.75;;
57055;SDS011;42945;51.718;5.324;2023-05-10T03:27:03;88.32;;;32.40;;
57055;SDS011;42945;51.718;5.324;2023-05-10T03:29:30;84.85;;;32.08;;
57055;SDS011;42945;51.718;5.324;2023-05-10T03:31:57;80.13;;;31.38;;
57055;SDS011;42945;51.718;5.324;2023-05-10T03:34:24;78.05;;;31.15;;
57055;SDS011;42945;51.718;5.324;2023-05-10T03:36:50;76.18;;;29.23;;
57055;SDS011;42945;51.718;5.324;2023-05-10T03:39:15;88.13;;;31.40;;
57055;SDS011;42945;51.718;5.324;2023-05-10T03:41:41;88.28;;;31.02;;
57055;SDS011;42945;51.718;5.324;2023-05-10T03:44:07;84.88;;;32.35;;
57055;SDS011;42945;51.718;5.324;2023-05-10T03:46:32;79.97;;;31.35;;
57055;SDS011;42945;51.718;5.324;2023-05-10T03:48:57;78.88;;;32.13;;
57055;SDS011;42945;51.718;5.324;2023-05-10T03:51:22;80.95;;;31.52;;
57055;SDS011;42945;51.718;5.324;2023-05-10T03:53:49;81.40;;;30.40;;
57055;SDS011;42945;51.718;5.324;2023-05-10T03:56:14;78.95;;;30.80;;
57055;SDS011;42945;51.718;5.324;2023-05-10T03:58:40;72.95;;;30.27;;
57055;SDS011;42945;51.718;5.324;2023-05-10T04:01:05;82.68;;;29.45;;
57055;SDS011;42945;51.718;5.324;2023-05-10T04:03:30;74.63;;;28.13;;
57055;SDS011;42945;51.718;5.324;2023-05-10T04:05:59;71.47;;;28.33;;
57055;SDS011;42945;51.718;5.324;2023-05-10T04:08:26;74.63;;;28.38;;
57055;SDS011;42945;51.718;5.324;2023-05-10T04:10:51;72.95;;;29.63;;
57055;SDS011;42945;51.718;5.324;2023-05-10T04:13:16;74.35;;;27.77;;
57055;SDS011;42945;51.718;5.324;2023-05-10T04:15:42;76.80;;;28.65;;
57055;SDS011;42945;51.718;5.324;2023-05-10T04:18:08;74.97;;;28.73;;
57055;SDS011;42945;51.718;5.324;2023-05-10T04:20:33;79.18;;;29.75;;
57055;SDS011;42945;51.718;5.324;2023-05-10T04:22:59;76.90;;;30.10;;
57055;SDS011;42945;51.718;5.324;2023-05-10T04:25:24;69.15;;;28.38;;
57055;SDS011;42945;51.718;5.324;2023-05-10T04:27:49;76.13;;;28.70;;
57055;SDS011;42945;51.718;5.324;2023-05-10T04:30:15;71.75;;;28.33;;
57055;SDS011;42945;51.718;5.324;2023-05-10T04:32:40;74.10;;;30.52;;
57055;SDS011;42945;51.718;5.324;2023-05-10T04:35:05;80.38;;;29.38;;
57055;SDS011;42945;51.718;5.324;2023-05-10T04:37:31;74.63;;;27.23;;
57055;SDS011;42945;51.718;5.324;2023-05-10T04:39:56;81.00;;;30.75;;
57055;SDS011;42945;51.718;5.324;2023-05-10T04:42:21;78.50;;;32.30;;
57055;SDS011;42945;51.718;5.324;2023-05-10T04:44:47;75.90;;;32.65;;
57055;SDS011;42945;51.718;5.324;2023-05-10T04:47:12;68.53;;;29.05;;
57055;SDS011;42945;51.718;5.324;2023-05-10T04:49:38;68.90;;;29.50;;
57055;SDS011;42945;51.718;5.324;2023-05-10T04:52:03;68.28;;;29.45;;
57055;SDS011;42945;51.718;5.324;2023-05-10T04:54:29;70.65;;;29.02;;
57055;SDS011;42945;51.718;5.324;2023-05-10T04:56:54;62.58;;;28.20;;
57055;SDS011;42945;51.718;5.324;2023-05-10T04:59:19;71.22;;;29.55;;
57055;SDS011;42945;51.718;5.324;2023-05-10T05:01:44;72.55;;;29.20;;
57055;SDS011;42945;51.718;5.324;2023-05-10T05:04:10;76.53;;;27.80;;
57055;SDS011;42945;51.718;5.324;2023-05-10T05:06:35;70.28;;;28.90;;
57055;SDS011;42945;51.718;5.324;2023-05-10T05:09:00;81.45;;;31.48;;
57055;SDS011;42945;51.718;5.324;2023-05-10T05:11:26;85.93;;;32.55;;
57055;SDS011;42945;51.718;5.324;2023-05-10T05:13:51;75.25;;;30.42;;
57055;SDS011;42945;51.718;5.324;2023-05-10T05:16:16;73.53;;;29.10;;
57055;SDS011;42945;51.718;5.324;2023-05-10T05:18:42;79.43;;;29.73;;
57055;SDS011;42945;51.718;5.324;2023-05-10T05:21:17;76.38;;;28.08;;
57055;SDS011;42945;51.718;5.324;2023-05-10T05:23:43;71.55;;;28.85;;
57055;SDS011;42945;51.718;5.324;2023-05-10T05:26:08;80.90;;;30.15;;
57055;SDS011;42945;51.718;5.324;2023-05-10T05:28:34;71.68;;;29.50;;
57055;SDS011;42945;51.718;5.324;2023-05-10T05:31:02;62.13;;;27.45;;
57055;SDS011;42945;51.718;5.324;2023-05-10T05:33:32;66.68;;;27.83;;
57055;SDS011;42945;51.718;5.324;2023-05-10T05:35:59;70.28;;;26.73;;
57055;SDS011;42945;51.718;5.324;2023-05-10T05:38:26;67.55;;;26.95;;
57055;SDS011;42945;51.718;5.324;2023-05-10T05:40:51;58.33;;;25.20;;
57055;SDS011;42945;51.718;5.324;2023-05-10T05:43:17;67.53;;;26.45;;
57055;SDS011;42945;51.718;5.324;2023-05-10T05:45:42;63.72;;;26.92;;
57055;SDS011;42945;51.718;5.324;2023-05-10T05:48:07;68.22;;;26.73;;
57055;SDS011;42945;51.718;5.324;2023-05-10T05:50:32;65.72;;;27.13;;
57055;SDS011;42945;51.718;5.324;2023-05-10T05:52:58;59.25;;;25.23;;
57055;SDS011;42945;51.718;5.324;2023-05-10T05:55:23;60.53;;;24.52;;
57055;SDS011;42945;51.718;5.324;2023-05-10T05:57:49;62.17;;;25.45;;
57055;SDS011;42945;51.718;5.324;2023-05-10T06:00:14;63.40;;;26.77;;
57055;SDS011;42945;51.718;5.324;2023-05-10T06:02:40;60.33;;;25.77;;
57055;SDS011;42945;51.718;5.324;2023-05-10T06:05:05;54.35;;;24.75;;
57055;SDS011;42945;51.718;5.324;2023-05-10T06:07:31;60.10;;;24.25;;
57055;SDS011;42945;51.718;5.324;2023-05-10T06:09:57;54.20;;;23.95;;
57055;SDS011;42945;51.718;5.324;2023-05-10T06:12:22;46.88;;;22.45;;
57055;SDS011;42945;51.718;5.324;2023-05-10T06:14:47;52.03;;;22.83;;
57055;SDS011;42945;51.718;5.324;2023-05-10T06:17:13;52.60;;;23.92;;
57055;SDS011;42945;51.718;5.324;2023-05-10T06:19:38;53.08;;;23.75;;
57055;SDS011;42945;51.718;5.324;2023-05-10T06:22:03;56.80;;;22.52;;
57055;SDS011;42945;51.718;5.324;2023-05-10T06:24:29;67.43;;;25.90;;
57055;SDS011;42945;51.718;5.324;2023-05-10T06:26:55;57.75;;;24.55;;
57055;SDS011;42945;51.718;5.324;2023-05-10T06:29:21;64.05;;;23.70;;
57055;SDS011;42945;51.718;5.324;2023-05-10T06:31:46;46.70;;;23.05;;
57055;SDS011;42945;51.718;5.324;2023-05-10T06:34:12;62.58;;;23.90;;
57055;SDS011;42945;51.718;5.324;2023-05-10T06:36:38;51.97;;;25.05;;
57055;SDS011;42945;51.718;5.324;2023-05-10T06:39:06;55.70;;;24.83;;
57055;SDS011;42945;51.718;5.324;2023-05-10T06:41:32;59.35;;;25.52;;
57055;SDS011;42945;51.718;5.324;2023-05-10T06:43:57;65.30;;;25.33;;
57055;SDS011;42945;51.718;5.324;2023-05-10T06:46:22;60.38;;;26.85;;
57055;SDS011;42945;51.718;5.324;2023-05-10T06:48:47;55.88;;;27.02;;
57055;SDS011;42945;51.718;5.324;2023-05-10T06:51:13;61.03;;;26.98;;
57055;SDS011;42945;51.718;5.324;2023-05-10T06:53:38;57.95;;;27.35;;
57055;SDS011;42945;51.718;5.324;2023-05-10T06:56:03;55.45;;;27.95;;
57055;SDS011;42945;51.718;5.324;2023-05-10T06:58:28;56.00;;;27.55;;
57055;SDS011;42945;51.718;5.324;2023-05-10T07:00:54;55.88;;;27.75;;
57055;SDS011;42945;51.718;5.324;2023-05-10T07:03:19;61.45;;;27.13;;
57055;SDS011;42945;51.718;5.324;2023-05-10T07:05:44;64.18;;;29.70;;
57055;SDS011;42945;51.718;5.324;2023-05-10T07:08:10;69.20;;;29.50;;
57055;SDS011;42945;51.718;5.324;2023-05-10T07:10:35;50.88;;;26.85;;
57055;SDS011;42945;51.718;5.324;2023-05-10T07:13:00;62.28;;;27.25;;
57055;SDS011;42945;51.718;5.324;2023-05-10T07:15:26;56.65;;;27.88;;
57055;SDS011;42945;51.718;5.324;2023-05-10T07:17:51;57.65;;;25.95;;
57055;SDS011;42945;51.718;5.324;2023-05-10T07:20:17;56.30;;;27.17;;
57055;SDS011;42945;51.718;5.324;2023-05-10T07:22:42;64.95;;;26.60;;
57055;SDS011;42945;51.718;5.324;2023-05-10T07:25:08;58.67;;;27.27;;
57055;SDS011;42945;51.718;5.324;2023-05-10T07:27:33;60.53;;;27.63;;
57055;SDS011;42945;51.718;5.324;2023-05-10T07:29:59;56.53;;;27.35;;
57055;SDS011;42945;51.718;5.324;2023-05-10T07:32:25;63.83;;;27.80;;
57055;SDS011;42945;51.718;5.324;2023-05-10T07:34:50;59.28;;;27.13;;
57055;SDS011;42945;51.718;5.324;2023-05-10T07:37:16;65.28;;;26.90;;
57055;SDS011;42945;51.718;5.324;2023-05-10T07:39:41;65.00;;;27.17;;
57055;SDS011;42945;51.718;5.324;2023-05-10T07:42:06;57.60;;;27.13;;
57055;SDS011;42945;51.718;5.324;2023-05-10T07:44:32;55.03;;;26.85;;
57055;SDS011;42945;51.718;5.324;2023-05-10T07:46:57;51.10;;;25.58;;
57055;SDS011;42945;51.718;5.324;2023-05-10T07:49:22;60.30;;;27.23;;
57055;SDS011;42945;51.718;5.324;2023-05-10T07:51:49;55.47;;;24.95;;
57055;SDS011;42945;51.718;5.324;2023-05-10T07:54:15;49.95;;;24.08;;
57055;SDS011;42945;51.718;5.324;2023-05-10T07:56:40;49.90;;;24.70;;
57055;SDS011;42945;51.718;5.324;2023-05-10T07:59:10;49.42;;;23.73;;
57055;SDS011;42945;51.718;5.324;2023-05-10T08:01:40;45.13;;;24.52;;
57055;SDS011;42945;51.718;5.324;2023-05-10T08:04:05;40.42;;;21.63;;
57055;SDS011;42945;51.718;5.324;2023-05-10T08:06:31;43.50;;;22.08;;
57055;SDS011;42945;51.718;5.324;2023-05-10T08:08:56;42.90;;;23.45;;
57055;SDS011;42945;51.718;5.324;2023-05-10T08:11:21;45.65;;;24.00;;
57055;SDS011;42945;51.718;5.324;2023-05-10T08:13:48;48.55;;;26.00;;
57055;SDS011;42945;51.718;5.324;2023-05-10T08:16:15;42.40;;;23.45;;
57055;SDS011;42945;51.718;5.324;2023-05-10T08:18:41;43.95;;;23.77;;
57055;SDS011;42945;51.718;5.324;2023-05-10T08:21:08;47.42;;;25.63;;
57055;SDS011;42945;51.718;5.324;2023-05-10T08:23:35;42.95;;;22.90;;
57055;SDS011;42945;51.718;5.324;2023-05-10T08:26:01;46.88;;;23.25;;
57055;SDS011;42945;51.718;5.324;2023-05-10T08:28:26;43.95;;;23.77;;
57055;SDS011;42945;51.718;5.324;2023-05-10T08:30:52;40.85;;;21.52;;
57055;SDS011;42945;51.718;5.324;2023-05-10T08:33:17;46.05;;;23.52;;
57055;SDS011;42945;51.718;5.324;2023-05-10T08:35:43;41.05;;;23.30;;
57055;SDS011;42945;51.718;5.324;2023-05-10T08:38:10;41.00;;;22.75;;
57055;SDS011;42945;51.718;5.324;2023-05-10T08:40:40;42.85;;;22.98;;
57055;SDS011;42945;51.718;5.324;2023-05-10T08:43:08;38.10;;;21.63;;
57055;SDS011;42945;51.718;5.324;2023-05-10T08:45:44;37.88;;;20.95;;
57055;SDS011;42945;51.718;5.324;2023-05-10T08:48:13;30.80;;;18.42;;
57055;SDS011;42945;51.718;5.324;2023-05-10T08:50:39;30.48;;;17.27;;
57055;SDS011;42945;51.718;5.324;2023-05-10T08:53:08;26.60;;;15.27;;
57055;SDS011;42945;51.718;5.324;2023-05-10T08:55:36;24.05;;;15.70;;
57055;SDS011;42945;51.718;5.324;2023-05-10T08:58:03;23.73;;;13.77;;
57055;SDS011;42945;51.718;5.324;2023-05-10T09:00:32;29.30;;;15.18;;
57055;SDS011;42945;51.718;5.324;2023-05-10T09:02:58;22.05;;;13.55;;
57055;SDS011;42945;51.718;5.324;2023-05-10T09:05:25;25.40;;;14.10;;
57055;SDS011;42945;51.718;5.324;2023-05-10T09:07:51;26.40;;;15.70;;
57055;SDS011;42945;51.718;5.324;2023-05-10T09:10:16;23.25;;;13.10;;
57055;SDS011;42945;51.718;5.324;2023-05-10T09:12:42;23.20;;;12.02;;
57055;SDS011;42945;51.718;5.324;2023-05-10T09:15:10;21.40;;;11.85;;
57055;SDS011;42945;51.718;5.324;2023-05-10T09:17:39;23.63;;;13.75;;
57055;SDS011;42945;51.718;5.324;2023-05-10T09:20:06;26.38;;;12.35;;
57055;SDS011;42945;51.718;5.324;2023-05-10T09:22:31;22.33;;;12.25;;
57055;SDS011;42945;51.718;5.324;2023-05-10T09:25:07;22.67;;;12.43;;
57055;SDS011;42945;51.718;5.324;2023-05-10T09:27:40;17.88;;;11.00;;
57055;SDS011;42945;51.718;5.324;2023-05-10T09:30:09;19.45;;;11.45;;
57055;SDS011;42945;51.718;5.324;2023-05-10T09:32:36;15.30;;;9.70;;
57055;SDS011;42945;51.718;5.324;2023-05-10T09:35:09;14.75;;;8.20;;
57055;SDS011;42945;51.718;5.324;2023-05-10T09:37:42;15.20;;;8.98;;
57055;SDS011;42945;51.718;5.324;2023-05-10T09:40:16;17.73;;;9.40;;
57055;SDS011;42945;51.718;5.324;2023-05-10T09:42:50;17.58;;;9.32;;
57055;SDS011;42945;51.718;5.324;2023-05-10T09:45:21;13.40;;;7.10;;
57055;SDS011;42945;51.718;5.324;2023-05-10T09:47:47;14.27;;;7.80;;
57055;SDS011;42945;51.718;5.324;2023-05-10T09:50:13;14.48;;;7.53;;
57055;SDS011;42945;51.718;5.324;2023-05-10T09:52:48;14.65;;;8.38;;
57055;SDS011;42945;51.718;5.324;2023-05-10T09:55:25;14.95;;;8.00;;
57055;SDS011;42945;51.718;5.324;2023-05-10T09:58:03;13.82;;;8.32;;
57055;SDS011;42945;51.718;5.324;2023-05-10T10:00:34;16.58;;;9.48;;
57055;SDS011;42945;51.718;5.324;2023-05-10T10:03:04;14.20;;;8.45;;
57055;SDS011;42945;51.718;5.324;2023-05-10T10:05:34;11.35;;;7.30;;
57055;SDS011;42945;51.718;5.324;2023-05-10T10:08:01;13.05;;;8.02;;
57055;SDS011;42945;51.718;5.324;2023-05-10T10:10:28;16.05;;;8.02;;
57055;SDS011;42945;51.718;5.324;2023-05-10T10:12:54;12.07;;;7.30;;
57055;SDS011;42945;51.718;5.324;2023-05-10T10:15:20;10.82;;;6.80;;
57055;SDS011;42945;51.718;5.324;2023-05-10T10:17:46;12.88;;;7.32;;
57055;SDS011;42945;51.718;5.324;2023-05-10T10:20:14;15.50;;;8.38;;
57055;SDS011;42945;51.718;5.324;2023-05-10T10:22:41;12.60;;;7.40;;
57055;SDS011;42945;51.718;5.324;2023-05-10T10:25:09;14.13;;;7.82;;
57055;SDS011;42945;51.718;5.324;2023-05-10T10:30:17;13.70;;;8.18;;
57055;SDS011;42945;51.718;5.324;2023-05-10T10:35:17;14.13;;;8.33;;
57055;SDS011;42945;51.718;5.324;2023-05-10T10:37:47;15.85;;;7.50;;
57055;SDS011;42945;51.718;5.324;2023-05-10T10:40:29;16.60;;;8.70;;
57055;SDS011;42945;51.718;5.324;2023-05-10T10:42:55;13.05;;;7.10;;
57055;SDS011;42945;51.718;5.324;2023-05-10T10:45:22;13.80;;;7.30;;
57055;SDS011;42945;51.718;5.324;2023-05-10T10:47:48;13.45;;;7.68;;
57055;SDS011;42945;51.718;5.324;2023-05-10T10:50:14;13.63;;;7.53;;
57055;SDS011;42945;51.718;5.324;2023-05-10T10:52:43;11.20;;;7.35;;
57055;SDS011;42945;51.718;5.324;2023-05-10T10:55:10;12.73;;;7.25;;
57055;SDS011;42945;51.718;5.324;2023-05-10T10:57:55;13.65;;;7.65;;
57055;SDS011;42945;51.718;5.324;2023-05-10T11:00:29;13.35;;;7.60;;
57055;SDS011;42945;51.718;5.324;2023-05-10T11:05:42;14.18;;;7.85;;
57055;SDS011;42945;51.718;5.324;2023-05-10T11:08:27;13.68;;;8.48;;
57055;SDS011;42945;51.718;5.324;2023-05-10T11:15:58;11.70;;;7.53;;
57055;SDS011;42945;51.718;5.324;2023-05-10T11:18:34;10.77;;;7.55;;
57055;SDS011;42945;51.718;5.324;2023-05-10T11:21:02;13.23;;;7.38;;
57055;SDS011;42945;51.718;5.324;2023-05-10T11:23:30;14.15;;;7.75;;
57055;SDS011;42945;51.718;5.324;2023-05-10T11:25:57;10.90;;;8.05;;
57055;SDS011;42945;51.718;5.324;2023-05-10T11:28:24;11.10;;;8.40;;
57055;SDS011;42945;51.718;5.324;2023-05-10T11:30:51;16.45;;;8.65;;
57055;SDS011;42945;51.718;5.324;2023-05-10T11:33:17;14.90;;;8.77;;
57055;SDS011;42945;51.718;5.324;2023-05-10T11:35:44;18.05;;;8.80;;
57055;SDS011;42945;51.718;5.324;2023-05-10T11:38:10;12.70;;;8.07;;
57055;SDS011;42945;51.718;5.324;2023-05-10T11:40:37;13.27;;;8.10;;
57055;SDS011;42945;51.718;5.324;2023-05-10T11:43:03;13.57;;;8.23;;
57055;SDS011;42945;51.718;5.324;2023-05-10T11:45:29;13.27;;;7.88;;
57055;SDS011;42945;51.718;5.324;2023-05-10T11:47:57;13.30;;;8.57;;
57055;SDS011;42945;51.718;5.324;2023-05-10T11:50:23;13.40;;;7.90;;
57055;SDS011;42945;51.718;5.324;2023-05-10T11:52:54;16.10;;;8.20;;
57055;SDS011;42945;51.718;5.324;2023-05-10T11:55:20;13.60;;;8.27;;
57055;SDS011;42945;51.718;5.324;2023-05-10T11:57:46;12.52;;;8.80;;
57055;SDS011;42945;51.718;5.324;2023-05-10T12:00:12;12.80;;;8.10;;
57055;SDS011;42945;51.718;5.324;2023-05-10T12:02:38;14.80;;;8.30;;
57055;SDS011;42945;51.718;5.324;2023-05-10T12:05:03;12.07;;;7.35;;
57055;SDS011;42945;51.718;5.324;2023-05-10T12:07:30;11.30;;;7.82;;
57055;SDS011;42945;51.718;5.324;2023-05-10T12:10:02;12.00;;;7.40;;
57055;SDS011;42945;51.718;5.324;2023-05-10T12:12:38;12.05;;;7.25;;
57055;SDS011;42945;51.718;5.324;2023-05-10T12:15:05;9.32;;;7.13;;
57055;SDS011;42945;51.718;5.324;2023-05-10T12:17:36;11.70;;;7.45;;
57055;SDS011;42945;51.718;5.324;2023-05-10T12:20:23;10.80;;;7.25;;
57055;SDS011;42945;51.718;5.324;2023-05-10T12:22:50;10.85;;;6.82;;
57055;SDS011;42945;51.718;5.324;2023-05-10T12:25:18;8.82;;;6.75;;
57055;SDS011;42945;51.718;5.324;2023-05-10T12:27:54;12.05;;;6.68;;
57055;SDS011;42945;51.718;5.324;2023-05-10T12:30:22;8.57;;;5.90;;
57055;SDS011;42945;51.718;5.324;2023-05-10T12:32:48;10.18;;;5.80;;
57055;SDS011;42945;51.718;5.324;2023-05-10T12:35:13;8.07;;;5.32;;
57055;SDS011;42945;51.718;5.324;2023-05-10T12:37:39;9.75;;;5.38;;
57055;SDS011;42945;51.718;5.324;2023-05-10T12:40:05;8.50;;;5.30;;
57055;SDS011;42945;51.718;5.324;2023-05-10T12:42:32;7.70;;;4.72;;
57055;SDS011;42945;51.718;5.324;2023-05-10T12:44:58;8.93;;;4.75;;
57055;SDS011;42945;51.718;5.324;2023-05-10T12:47:23;10.10;;;4.63;;
57055;SDS011;42945;51.718;5.324;2023-05-10T12:49:48;6.93;;;3.85;;
57055;SDS011;42945;51.718;5.324;2023-05-10T12:52:14;7.30;;;4.13;;
57055;SDS011;42945;51.718;5.324;2023-05-10T12:54:39;6.75;;;3.88;;
57055;SDS011;42945;51.718;5.324;2023-05-10T12:57:05;5.07;;;3.00;;
57055;SDS011;42945;51.718;5.324;2023-05-10T12:59:30;4.65;;;3.15;;
57055;SDS011;42945;51.718;5.324;2023-05-10T13:01:56;5.15;;;3.45;;
57055;SDS011;42945;51.718;5.324;2023-05-10T13:04:22;7.65;;;5.45;;
57055;SDS011;42945;51.718;5.324;2023-05-10T13:06:47;9.18;;;6.68;;
57055;SDS011;42945;51.718;5.324;2023-05-10T13:09:13;10.63;;;7.20;;
57055;SDS011;42945;51.718;5.324;2023-05-10T13:11:38;9.90;;;7.30;;
57055;SDS011;42945;51.718;5.324;2023-05-10T13:14:03;8.70;;;7.43;;
57055;SDS011;42945;51.718;5.324;2023-05-10T13:16:28;11.27;;;7.47;;
57055;SDS011;42945;51.718;5.324;2023-05-10T13:18:54;10.10;;;7.38;;
57055;SDS011;42945;51.718;5.324;2023-05-10T13:21:19;9.95;;;7.40;;
57055;SDS011;42945;51.718;5.324;2023-05-10T13:23:44;10.30;;;7.60;;
57055;SDS011;42945;51.718;5.324;2023-05-10T13:26:11;10.18;;;7.85;;
57055;SDS011;42945;51.718;5.324;2023-05-10T13:28:36;10.15;;;8.15;;
57055;SDS011;42945;51.718;5.324;2023-05-10T13:31:03;11.27;;;8.73;;
57055;SDS011;42945;51.718;5.324;2023-05-10T13:33:29;11.85;;;8.65;;
57055;SDS011;42945;51.718;5.324;2023-05-10T13:35:55;9.93;;;8.10;;
57055;SDS011;42945;51.718;5.324;2023-05-10T13:38:20;10.77;;;7.93;;
57055;SDS011;42945;51.718;5.324;2023-05-10T13:40:45;10.40;;;7.97;;
57055;SDS011;42945;51.718;5.324;2023-05-10T13:43:11;10.30;;;7.82;;
57055;SDS011;42945;51.718;5.324;2023-05-10T13:45:36;9.10;;;7.90;;
57055;SDS011;42945;51.718;5.324;2023-05-10T13:48:01;11.32;;;8.52;;
57055;SDS011;42945;51.718;5.324;2023-05-10T13:50:27;10.57;;;8.30;;
57055;SDS011;42945;51.718;5.324;2023-05-10T13:52:52;12.15;;;9.75;;
57055;SDS011;42945;51.718;5.324;2023-05-10T13:55:17;12.40;;;9.15;;
57055;SDS011;42945;51.718;5.324;2023-05-10T13:57:43;11.57;;;9.88;;
57055;SDS011;42945;51.718;5.324;2023-05-10T14:00:08;13.80;;;10.43;;
57055;SDS011;42945;51.718;5.324;2023-05-10T14:02:34;15.80;;;11.07;;
57055;SDS011;42945;51.718;5.324;2023-05-10T14:05:00;15.93;;;12.07;;
57055;SDS011;42945;51.718;5.324;2023-05-10T14:07:25;16.40;;;12.13;;
57055;SDS011;42945;51.718;5.324;2023-05-10T14:09:50;17.17;;;11.35;;
57055;SDS011;42945;51.718;5.324;2023-05-10T14:12:16;17.65;;;11.85;;
57055;SDS011;42945;51.718;5.324;2023-05-10T14:14:42;17.55;;;12.50;;
57055;SDS011;42945;51.718;5.324;2023-05-10T14:17:08;18.67;;;12.60;;
57055;SDS011;42945;51.718;5.324;2023-05-10T14:19:35;19.25;;;12.98;;
57055;SDS011;42945;51.718;5.324;2023-05-10T14:22:01;18.00;;;11.98;;
57055;SDS011;42945;51.718;5.324;2023-05-10T14:24:26;15.48;;;11.98;;
57055;SDS011;42945;51.718;5.324;2023-05-10T14:26:52;16.27;;;12.70;;
57055;SDS011;42945;51.718;5.324;2023-05-10T14:29:19;19.67;;;13.52;;
57055;SDS011;42945;51.718;5.324;2023-05-10T14:31:45;17.25;;;12.80;;
57055;SDS011;42945;51.718;5.324;2023-05-10T14:34:11;17.73;;;13.25;;
57055;SDS011;42945;51.718;5.324;2023-05-10T14:36:36;19.10;;;13.95;;
57055;SDS011;42945;51.718;5.324;2023-05-10T14:39:01;19.17;;;13.32;;
57055;SDS011;42945;51.718;5.324;2023-05-10T14:41:28;17.80;;;13.30;;
57055;SDS011;42945;51.718;5.324;2023-05-10T14:43:55;18.20;;;12.75;;
57055;SDS011;42945;51.718;5.324;2023-05-10T14:46:20;20.10;;;13.48;;
57055;SDS011;42945;51.718;5.324;2023-05-10T14:48:45;21.02;;;13.68;;
57055;SDS011;42945;51.718;5.324;2023-05-10T14:51:11;17.95;;;12.43;;
57055;SDS011;42945;51.718;5.324;2023-05-10T14:53:36;16.00;;;12.43;;
57055;SDS011;42945;51.718;5.324;2023-05-10T14:56:02;17.27;;;11.98;;